PWSweather.com
Personal Weather Stations
Station Observations
WESTON01
WestonSuperMareGB BS22 8RT

WestonSuperMareGB BS22 8RT

Lat: 51.351508, Lon: -2.933373

Elevation: 15

Station Type: Fine Offset WH1080

http://www.westonweather.co.uk

Latest ConditionsUpdated 5:30:02 PM GMT Saturday, Oct 21, 2017
Currently Today's Max Today's Min Today's Average
Temperature 53.5°F11.9°C 57.3°F14.1°C 51.7°F10.9°C 54.4°F12.4°C
Dew Point 49.7°F9.8°C 52.0°F11.1°C 45.3°F7.4°C 47.7°F8.7°C
Winds 23.0 mph W37.0 kmh W 23.0 mph W37.0 kmh W - 11.9 mph 19.2 kmh
Wind Gusts 30.6 mph49.2 kmh 32.4 mph52.1 kmh - -
Humidity 87% 89% 67% 78%
Pressure 29.56 in1001.0 mb 29.56 in1001.0 mb 29.47 in998.0 mb -
Precipitation - 0.09 in2.3 mm - -
Hour Temp Dew Point Humidity Winds Wind Gusts Pressure Precip Precip Rate Daily Precip Total
05:30 PM 53.5°F11.9°C 49.7°F9.8°C 87% 23.0 mph W37.0 kmh W 30.6 mph49.2 kmh 29.56 in1001.0 mb 0.00 in0.0 mm 0.00 in0.0 mm 0.09 in2.3 mm
05:25 PM 53.3°F11.8°C 49.2°F9.6°C 86% 18.8 mph W30.3 kmh W 30.6 mph49.2 kmh 29.56 in1001.0 mb 0.00 in0.0 mm 0.00 in0.0 mm 0.09 in2.3 mm
05:20 PM 52.8°F11.6°C 48.7°F9.3°C 86% 13.6 mph WSW21.9 kmh WSW 22.6 mph36.4 kmh 29.56 in1001.0 mb 0.00 in0.0 mm 0.00 in0.0 mm 0.09 in2.3 mm
05:15 PM 52.4°F11.3°C 48.4°F9.1°C 86% 10.6 mph W17.1 kmh W 13.4 mph21.6 kmh 29.56 in1001.0 mb 0.05 in1.3 mm 0.00 in0.0 mm 0.09 in2.3 mm
05:10 PM 52.1°F11.2°C 48.0°F8.9°C 86% 10.1 mph WSW16.3 kmh WSW 17.3 mph27.8 kmh 29.53 in1000.0 mb 0.05 in1.3 mm 0.00 in0.0 mm 0.09 in2.3 mm
05:05 PM 51.9°F11.1°C 47.5°F8.6°C 85% 9.1 mph W14.6 kmh W 17.3 mph27.8 kmh 29.53 in1000.0 mb 0.05 in1.3 mm 0.00 in0.0 mm 0.09 in2.3 mm
05:00 PM 51.9°F11.1°C 47.5°F8.6°C 85% 9.1 mph W14.6 kmh W 13.7 mph22.0 kmh 29.53 in1000.0 mb 0.05 in1.3 mm 0.00 in0.0 mm 0.09 in2.3 mm
04:55 PM 51.9°F11.1°C 47.5°F8.6°C 85% 10.8 mph W17.4 kmh W 14.0 mph22.5 kmh 29.53 in1000.0 mb 0.05 in1.3 mm 0.00 in0.0 mm 0.09 in2.3 mm
04:50 PM 51.9°F11.1°C 47.5°F8.6°C 85% 11.9 mph WSW19.2 kmh WSW 14.0 mph22.5 kmh 29.53 in1000.0 mb 0.05 in1.3 mm 0.00 in0.0 mm 0.09 in2.3 mm
04:45 PM 51.9°F11.1°C 47.2°F8.4°C 84% 13.1 mph SW21.1 kmh SW 17.3 mph27.8 kmh 29.53 in1000.0 mb 0.05 in1.3 mm 0.00 in0.0 mm 0.09 in2.3 mm
04:40 PM 51.9°F11.1°C 47.2°F8.4°C 84% 12.9 mph SW20.8 kmh SW 18.1 mph29.1 kmh 29.53 in1000.0 mb 0.05 in1.3 mm 0.00 in0.0 mm 0.09 in2.3 mm
04:35 PM 51.7°F10.9°C 47.0°F8.3°C 84% 9.7 mph WSW15.6 kmh WSW 18.1 mph29.1 kmh 29.53 in1000.0 mb 0.05 in1.3 mm 0.00 in0.0 mm 0.09 in2.3 mm
04:30 PM 51.7°F10.9°C 47.0°F8.3°C 84% 11.2 mph WSW18.0 kmh WSW 21.7 mph34.9 kmh 29.53 in1000.0 mb 0.05 in1.3 mm 0.00 in0.0 mm 0.09 in2.3 mm
04:25 PM 51.7°F10.9°C 46.7°F8.2°C 83% 11.8 mph WSW19.0 kmh WSW 21.7 mph34.9 kmh 29.53 in1000.0 mb 0.05 in1.3 mm 0.00 in0.0 mm 0.09 in2.3 mm
04:20 PM 51.9°F11.1°C 46.9°F8.3°C 83% 11.1 mph WSW17.9 kmh WSW 19.0 mph30.6 kmh 29.53 in1000.0 mb 0.05 in1.3 mm 0.60 in15.2 mm 0.09 in2.3 mm
04:15 PM 51.9°F11.1°C 46.9°F8.3°C 83% 12.7 mph WSW20.4 kmh WSW 22.9 mph36.9 kmh 29.53 in1000.0 mb 0.00 in0.0 mm 0.00 in0.0 mm 0.04 in1.0 mm
04:10 PM 51.9°F11.1°C 46.6°F8.1°C 82% 13.9 mph WSW22.4 kmh WSW 22.9 mph36.9 kmh 29.53 in1000.0 mb 0.00 in0.0 mm 0.00 in0.0 mm 0.04 in1.0 mm
04:05 PM 52.1°F11.2°C 46.7°F8.2°C 82% 14.8 mph WSW23.8 kmh WSW 22.9 mph36.9 kmh 29.53 in1000.0 mb 0.00 in0.0 mm 0.00 in0.0 mm 0.04 in1.0 mm
04:00 PM 52.1°F11.2°C 46.7°F8.2°C 82% 13.8 mph WSW22.2 kmh WSW 18.7 mph30.1 kmh 29.53 in1000.0 mb 0.00 in0.0 mm 0.00 in0.0 mm 0.04 in1.0 mm
03:55 PM 52.3°F11.3°C 46.6°F8.1°C 81% 13.4 mph WSW21.6 kmh WSW 19.3 mph31.1 kmh 29.53 in1000.0 mb 0.00 in0.0 mm 0.00 in0.0 mm 0.04 in1.0 mm
03:50 PM 52.4°F11.3°C 46.4°F8.0°C 80% 12.5 mph WSW20.1 kmh WSW 19.3 mph31.1 kmh 29.53 in1000.0 mb 0.00 in0.0 mm 0.00 in0.0 mm 0.04 in1.0 mm
03:45 PM 52.6°F11.4°C 46.6°F8.1°C 80% 14.4 mph W23.2 kmh W 18.4 mph29.6 kmh 29.53 in1000.0 mb 0.00 in0.0 mm 0.00 in0.0 mm 0.04 in1.0 mm
03:40 PM 52.6°F11.4°C 46.3°F7.9°C 79% 15.3 mph WSW24.6 kmh WSW 18.4 mph29.6 kmh 29.53 in1000.0 mb 0.00 in0.0 mm 0.00 in0.0 mm 0.04 in1.0 mm
03:35 PM 52.8°F11.6°C 46.5°F8.1°C 79% 17.5 mph WSW28.2 kmh WSW 23.2 mph37.3 kmh 29.53 in1000.0 mb 0.04 in1.0 mm 0.00 in0.0 mm 0.04 in1.0 mm
03:30 PM 52.8°F11.6°C 46.1°F7.8°C 78% 17.8 mph W28.6 kmh W 23.2 mph37.3 kmh 29.53 in1000.0 mb 0.04 in1.0 mm 0.00 in0.0 mm 0.04 in1.0 mm
03:25 PM 53.0°F11.7°C 46.3°F7.9°C 78% 17.3 mph W27.8 kmh W 25.3 mph40.7 kmh 29.53 in1000.0 mb 0.04 in1.0 mm 0.00 in0.0 mm 0.04 in1.0 mm
03:20 PM 53.0°F11.7°C 46.0°F7.8°C 77% 16.6 mph W26.7 kmh W 25.3 mph40.7 kmh 29.53 in1000.0 mb 0.04 in1.0 mm 0.00 in0.0 mm 0.04 in1.0 mm
03:15 PM 53.2°F11.8°C 46.1°F7.8°C 77% 15.2 mph WSW24.5 kmh WSW 17.6 mph28.3 kmh 29.53 in1000.0 mb 0.04 in1.0 mm 0.00 in0.0 mm 0.04 in1.0 mm
03:10 PM 53.2°F11.8°C 46.1°F7.8°C 77% 19.1 mph WSW30.7 kmh WSW 32.4 mph52.1 kmh 29.53 in1000.0 mb 0.04 in1.0 mm 0.00 in0.0 mm 0.04 in1.0 mm
03:05 PM 53.0°F11.7°C 45.6°F7.6°C 76% 19.8 mph WSW31.9 kmh WSW 32.4 mph52.1 kmh 29.53 in1000.0 mb 0.04 in1.0 mm 0.00 in0.0 mm 0.04 in1.0 mm
03:00 PM 52.8°F11.6°C 45.4°F7.4°C 76% 17.5 mph WSW28.2 kmh WSW 32.4 mph52.1 kmh 29.53 in1000.0 mb 0.04 in1.0 mm 0.00 in0.0 mm 0.04 in1.0 mm
02:55 PM 52.8°F11.6°C 45.8°F7.7°C 77% 13.7 mph WSW22.0 kmh WSW 20.2 mph32.5 kmh 29.53 in1000.0 mb 0.04 in1.0 mm 0.00 in0.0 mm 0.04 in1.0 mm
02:50 PM 52.6°F11.4°C 45.3°F7.4°C 76% 14.9 mph WSW24.0 kmh WSW 20.2 mph32.5 kmh 29.53 in1000.0 mb 0.04 in1.0 mm 0.00 in0.0 mm 0.04 in1.0 mm
02:45 PM 53.0°F11.7°C 45.6°F7.6°C 76% 14.4 mph WSW23.2 kmh WSW 20.2 mph32.5 kmh 29.53 in1000.0 mb 0.04 in1.0 mm 0.00 in0.0 mm 0.04 in1.0 mm
02:40 PM 53.2°F11.8°C 45.4°F7.4°C 75% 15.4 mph WSW24.8 kmh WSW 23.8 mph38.3 kmh 29.53 in1000.0 mb 0.04 in1.0 mm 0.48 in12.2 mm 0.04 in1.0 mm
02:35 PM 53.7°F12.1°C 45.6°F7.6°C 74% 18.1 mph WSW29.1 kmh WSW 24.1 mph38.8 kmh 29.53 in1000.0 mb 0.00 in0.0 mm 0.00 in0.0 mm 0.00 in0.0 mm
02:30 PM 53.9°F12.2°C 45.4°F7.4°C 73% 18.2 mph WSW29.3 kmh WSW 24.1 mph38.8 kmh 29.53 in1000.0 mb 0.00 in0.0 mm 0.00 in0.0 mm 0.00 in0.0 mm
02:25 PM 53.9°F12.2°C 45.4°F7.4°C 73% 15.1 mph WSW24.3 kmh WSW 23.2 mph37.3 kmh 29.53 in1000.0 mb 0.00 in0.0 mm 0.00 in0.0 mm 0.00 in0.0 mm
02:20 PM 53.9°F12.2°C 45.4°F7.4°C 73% 14.3 mph WSW23.0 kmh WSW 20.2 mph32.5 kmh 29.53 in1000.0 mb 0.00 in0.0 mm 0.00 in0.0 mm 0.00 in0.0 mm
02:15 PM 54.0°F12.2°C 45.6°F7.6°C 73% 18.2 mph WSW29.3 kmh WSW 30.0 mph48.3 kmh 29.53 in1000.0 mb 0.00 in0.0 mm 0.00 in0.0 mm 0.00 in0.0 mm
02:10 PM 54.6°F12.6°C 45.7°F7.6°C 72% 18.2 mph WSW29.3 kmh WSW 30.0 mph48.3 kmh 29.53 in1000.0 mb 0.00 in0.0 mm 0.00 in0.0 mm 0.00 in0.0 mm
02:05 PM 55.3°F12.9°C 45.7°F7.6°C 70% 13.9 mph WSW22.4 kmh WSW 29.2 mph47.0 kmh 29.53 in1000.0 mb 0.00 in0.0 mm 0.00 in0.0 mm 0.00 in0.0 mm
02:00 PM 55.5°F13.1°C 45.5°F7.5°C 69% 12.6 mph WSW20.3 kmh WSW 29.2 mph47.0 kmh 29.53 in1000.0 mb 0.00 in0.0 mm 0.00 in0.0 mm 0.00 in0.0 mm
01:55 PM 55.5°F13.1°C 45.5°F7.5°C 69% 15.3 mph WSW24.6 kmh WSW 20.5 mph33.0 kmh 29.53 in1000.0 mb 0.00 in0.0 mm 0.00 in0.0 mm 0.00 in0.0 mm
01:50 PM 55.5°F13.1°C 45.5°F7.5°C 69% 16.0 mph WSW25.7 kmh WSW 20.5 mph33.0 kmh 29.53 in1000.0 mb 0.00 in0.0 mm 0.00 in0.0 mm 0.00 in0.0 mm
01:45 PM 55.7°F13.2°C 45.7°F7.6°C 69% 18.5 mph WSW29.8 kmh WSW 29.8 mph48.0 kmh 29.53 in1000.0 mb 0.00 in0.0 mm 0.00 in0.0 mm 0.00 in0.0 mm
01:40 PM 55.7°F13.2°C 45.7°F7.6°C 69% 19.3 mph WSW31.1 kmh WSW 29.8 mph48.0 kmh 29.53 in1000.0 mb 0.00 in0.0 mm 0.00 in0.0 mm 0.00 in0.0 mm
01:35 PM 56.0°F13.3°C 46.0°F7.8°C 69% 17.0 mph SW27.4 kmh SW 22.0 mph35.4 kmh 29.53 in1000.0 mb 0.00 in0.0 mm 0.00 in0.0 mm 0.00 in0.0 mm
01:30 PM 56.0°F13.3°C 46.0°F7.8°C 69% 15.8 mph SW25.4 kmh SW 30.9 mph49.7 kmh 29.53 in1000.0 mb 0.00 in0.0 mm 0.00 in0.0 mm 0.00 in0.0 mm
01:25 PM 56.0°F13.3°C 46.4°F8.0°C 70% 13.5 mph WSW21.7 kmh WSW 30.9 mph49.7 kmh 29.53 in1000.0 mb 0.00 in0.0 mm 0.00 in0.0 mm 0.00 in0.0 mm
01:20 PM 56.2°F13.4°C 46.6°F8.1°C 70% 12.0 mph W19.3 kmh W 22.0 mph35.4 kmh 29.53 in1000.0 mb 0.00 in0.0 mm 0.00 in0.0 mm 0.00 in0.0 mm
01:15 PM 56.2°F13.4°C 46.6°F8.1°C 70% 12.3 mph SW19.8 kmh SW 20.8 mph33.5 kmh 29.53 in1000.0 mb 0.00 in0.0 mm 0.00 in0.0 mm 0.00 in0.0 mm
01:10 PM 56.0°F13.3°C 46.4°F8.0°C 70% 13.4 mph SW21.6 kmh SW 20.8 mph33.5 kmh 29.53 in1000.0 mb 0.00 in0.0 mm 0.00 in0.0 mm 0.00 in0.0 mm
01:05 PM 55.8°F13.2°C 46.2°F7.9°C 70% 12.1 mph SW19.5 kmh SW 17.6 mph28.3 kmh 29.53 in1000.0 mb 0.00 in0.0 mm 0.00 in0.0 mm 0.00 in0.0 mm
01:00 PM 56.0°F13.3°C 46.0°F7.8°C 69% 12.5 mph WSW20.1 kmh WSW 16.7 mph26.9 kmh 29.53 in1000.0 mb 0.00 in0.0 mm 0.00 in0.0 mm 0.00 in0.0 mm
12:55 PM 56.2°F13.4°C 45.8°F7.7°C 68% 13.6 mph SW21.9 kmh SW 16.7 mph26.9 kmh 29.53 in1000.0 mb 0.00 in0.0 mm 0.00 in0.0 mm 0.00 in0.0 mm
12:50 PM 56.0°F13.3°C 45.6°F7.6°C 68% 15.5 mph SW24.9 kmh SW 22.9 mph36.9 kmh 29.53 in1000.0 mb 0.00 in0.0 mm 0.00 in0.0 mm 0.00 in0.0 mm
12:45 PM 56.4°F13.6°C 46.0°F7.8°C 68% 16.5 mph WSW26.6 kmh WSW 32.1 mph51.7 kmh 29.53 in1000.0 mb 0.00 in0.0 mm 0.00 in0.0 mm 0.00 in0.0 mm
12:40 PM 56.6°F13.7°C 46.1°F7.8°C 68% 16.1 mph SW25.9 kmh SW 32.1 mph51.7 kmh 29.50 in999.0 mb 0.00 in0.0 mm 0.00 in0.0 mm 0.00 in0.0 mm
12:35 PM 56.8°F13.8°C 46.7°F8.2°C 69% 14.6 mph SW23.5 kmh SW 23.2 mph37.3 kmh 29.50 in999.0 mb 0.00 in0.0 mm 0.00 in0.0 mm 0.00 in0.0 mm
12:30 PM 56.8°F13.8°C 46.7°F8.2°C 69% 13.1 mph SW21.1 kmh SW 18.1 mph29.1 kmh 29.50 in999.0 mb 0.00 in0.0 mm 0.00 in0.0 mm 0.00 in0.0 mm
12:25 PM 56.2°F13.4°C 46.2°F7.9°C 69% 14.5 mph WSW23.3 kmh WSW 20.5 mph33.0 kmh 29.53 in1000.0 mb 0.00 in0.0 mm 0.00 in0.0 mm 0.00 in0.0 mm
12:20 PM 56.0°F13.3°C 46.0°F7.8°C 69% 17.2 mph WSW27.7 kmh WSW 23.5 mph37.8 kmh 29.53 in1000.0 mb 0.00 in0.0 mm 0.00 in0.0 mm 0.00 in0.0 mm
12:15 PM 56.4°F13.6°C 46.0°F7.8°C 68% 15.2 mph WSW24.5 kmh WSW 23.5 mph37.8 kmh 29.53 in1000.0 mb 0.00 in0.0 mm 0.00 in0.0 mm 0.00 in0.0 mm
12:10 PM 56.8°F13.8°C 45.9°F7.7°C 67% 15.2 mph WSW24.5 kmh WSW 22.6 mph36.4 kmh 29.50 in999.0 mb 0.00 in0.0 mm 0.00 in0.0 mm 0.00 in0.0 mm
12:05 PM 56.8°F13.8°C 46.3°F7.9°C 68% 14.7 mph SW23.7 kmh SW 22.6 mph36.4 kmh 29.50 in999.0 mb 0.00 in0.0 mm 0.00 in0.0 mm 0.00 in0.0 mm
12:00 PM 56.9°F13.8°C 46.5°F8.1°C 68% 12.8 mph SW20.6 kmh SW 17.3 mph27.8 kmh 29.50 in999.0 mb 0.00 in0.0 mm 0.00 in0.0 mm 0.00 in0.0 mm
11:55 AM 57.1°F13.9°C 46.6°F8.1°C 68% 14.1 mph SW22.7 kmh SW 25.9 mph41.7 kmh 29.50 in999.0 mb 0.00 in0.0 mm 0.00 in0.0 mm 0.00 in0.0 mm
11:50 AM 57.3°F14.1°C 46.4°F8.0°C 67% 15.8 mph SW25.4 kmh SW 26.5 mph42.6 kmh 29.50 in999.0 mb 0.00 in0.0 mm 0.00 in0.0 mm 0.00 in0.0 mm
11:45 AM 57.1°F13.9°C 46.6°F8.1°C 68% 18.7 mph SW30.1 kmh SW 26.8 mph43.1 kmh 29.50 in999.0 mb 0.00 in0.0 mm 0.00 in0.0 mm 0.00 in0.0 mm
11:40 AM 56.9°F13.8°C 46.9°F8.3°C 69% 17.1 mph SW27.5 kmh SW 26.8 mph43.1 kmh 29.50 in999.0 mb 0.00 in0.0 mm 0.00 in0.0 mm 0.00 in0.0 mm
11:35 AM 56.8°F13.8°C 46.7°F8.2°C 69% 12.4 mph SW20.0 kmh SW 18.1 mph29.1 kmh 29.50 in999.0 mb 0.00 in0.0 mm 0.00 in0.0 mm 0.00 in0.0 mm
11:30 AM 56.4°F13.6°C 46.7°F8.2°C 70% 13.8 mph SW22.2 kmh SW 22.0 mph35.4 kmh 29.50 in999.0 mb 0.00 in0.0 mm 0.00 in0.0 mm 0.00 in0.0 mm
11:25 AM 56.4°F13.6°C 46.7°F8.2°C 70% 14.9 mph SW24.0 kmh SW 22.0 mph35.4 kmh 29.50 in999.0 mb 0.00 in0.0 mm 0.00 in0.0 mm 0.00 in0.0 mm
11:20 AM 56.4°F13.6°C 46.7°F8.2°C 70% 15.5 mph WSW24.9 kmh WSW 22.0 mph35.4 kmh 29.50 in999.0 mb 0.00 in0.0 mm 0.00 in0.0 mm 0.00 in0.0 mm
11:15 AM 56.0°F13.3°C 46.4°F8.0°C 70% 14.9 mph SW24.0 kmh SW 22.3 mph35.9 kmh 29.50 in999.0 mb 0.00 in0.0 mm 0.00 in0.0 mm 0.00 in0.0 mm
11:10 AM 55.7°F13.2°C 46.4°F8.0°C 71% 13.3 mph SW21.4 kmh SW 22.3 mph35.9 kmh 29.50 in999.0 mb 0.00 in0.0 mm 0.00 in0.0 mm 0.00 in0.0 mm
11:05 AM 55.7°F13.2°C 46.4°F8.0°C 71% 11.4 mph SW18.3 kmh SW 13.1 mph21.1 kmh 29.50 in999.0 mb 0.00 in0.0 mm 0.00 in0.0 mm 0.00 in0.0 mm
11:00 AM 55.5°F13.1°C 46.2°F7.9°C 71% 10.4 mph SW16.7 kmh SW 18.1 mph29.1 kmh 29.50 in999.0 mb 0.00 in0.0 mm 0.00 in0.0 mm 0.00 in0.0 mm
10:55 AM 55.7°F13.2°C 46.4°F8.0°C 71% 11.1 mph SW17.9 kmh SW 19.6 mph31.5 kmh 29.50 in999.0 mb 0.00 in0.0 mm 0.00 in0.0 mm 0.00 in0.0 mm
10:50 AM 55.8°F13.2°C 46.2°F7.9°C 70% 12.9 mph WSW20.8 kmh WSW 19.6 mph31.5 kmh 29.50 in999.0 mb 0.00 in0.0 mm 0.00 in0.0 mm 0.00 in0.0 mm
10:45 AM 56.0°F13.3°C 46.4°F8.0°C 70% 14.4 mph W23.2 kmh W 20.2 mph32.5 kmh 29.50 in999.0 mb 0.00 in0.0 mm 0.00 in0.0 mm 0.00 in0.0 mm
10:40 AM 56.2°F13.4°C 46.6°F8.1°C 70% 14.7 mph WSW23.7 kmh WSW 22.0 mph35.4 kmh 29.50 in999.0 mb 0.00 in0.0 mm 0.00 in0.0 mm 0.00 in0.0 mm
10:35 AM 55.7°F13.2°C 46.4°F8.0°C 71% 13.4 mph SW21.6 kmh SW 22.0 mph35.4 kmh 29.50 in999.0 mb 0.00 in0.0 mm 0.00 in0.0 mm 0.00 in0.0 mm
10:30 AM 55.7°F13.2°C 46.4°F8.0°C 71% 14.5 mph SW23.3 kmh SW 19.6 mph31.5 kmh 29.50 in999.0 mb 0.00 in0.0 mm 0.00 in0.0 mm 0.00 in0.0 mm
10:25 AM 55.7°F13.2°C 46.4°F8.0°C 71% 15.0 mph SW24.1 kmh SW 19.6 mph31.5 kmh 29.50 in999.0 mb 0.00 in0.0 mm 0.00 in0.0 mm 0.00 in0.0 mm
10:10 AM 55.5°F13.1°C 46.6°F8.1°C 72% 13.2 mph WSW21.2 kmh WSW 19.3 mph31.1 kmh 29.50 in999.0 mb 0.00 in0.0 mm 0.00 in0.0 mm 0.00 in0.0 mm
10:05 AM 55.1°F12.8°C 46.3°F7.9°C 72% 13.8 mph SW22.2 kmh SW 19.3 mph31.1 kmh 29.50 in999.0 mb 0.00 in0.0 mm 0.00 in0.0 mm 0.00 in0.0 mm
10:00 AM 54.8°F12.7°C 46.3°F7.9°C 73% 13.9 mph SW22.4 kmh SW 20.5 mph33.0 kmh 29.50 in999.0 mb 0.00 in0.0 mm 0.00 in0.0 mm 0.00 in0.0 mm
09:55 AM 54.8°F12.7°C 46.3°F7.9°C 73% 14.5 mph WSW23.3 kmh WSW 20.5 mph33.0 kmh 29.50 in999.0 mb 0.00 in0.0 mm 0.00 in0.0 mm 0.00 in0.0 mm
09:50 AM 55.0°F12.8°C 46.5°F8.1°C 73% 12.7 mph WSW20.4 kmh WSW 17.3 mph27.8 kmh 29.50 in999.0 mb 0.00 in0.0 mm 0.00 in0.0 mm 0.00 in0.0 mm
09:45 AM 55.0°F12.8°C 46.5°F8.1°C 73% 12.6 mph WSW20.3 kmh WSW 21.1 mph34.0 kmh 29.50 in999.0 mb 0.00 in0.0 mm 0.00 in0.0 mm 0.00 in0.0 mm
09:40 AM 55.0°F12.8°C 46.5°F8.1°C 73% 14.5 mph WSW23.3 kmh WSW 21.1 mph34.0 kmh 29.50 in999.0 mb 0.00 in0.0 mm 0.00 in0.0 mm 0.00 in0.0 mm
09:35 AM 55.0°F12.8°C 46.5°F8.1°C 73% 12.3 mph SW19.8 kmh SW 17.0 mph27.4 kmh 29.50 in999.0 mb 0.00 in0.0 mm 0.00 in0.0 mm 0.00 in0.0 mm
09:30 AM 54.8°F12.7°C 46.3°F7.9°C 73% 13.1 mph SW21.1 kmh SW 22.6 mph36.4 kmh 29.50 in999.0 mb 0.00 in0.0 mm 0.00 in0.0 mm 0.00 in0.0 mm
09:25 AM 54.8°F12.7°C 46.3°F7.9°C 73% 14.8 mph SW23.8 kmh SW 22.6 mph36.4 kmh 29.50 in999.0 mb 0.00 in0.0 mm 0.00 in0.0 mm 0.00 in0.0 mm
09:20 AM 54.8°F12.7°C 46.6°F8.1°C 74% 14.9 mph SW24.0 kmh SW 22.9 mph36.9 kmh 29.50 in999.0 mb 0.00 in0.0 mm 0.00 in0.0 mm 0.00 in0.0 mm
09:15 AM 54.8°F12.7°C 46.6°F8.1°C 74% 13.5 mph SW21.7 kmh SW 22.9 mph36.9 kmh 29.50 in999.0 mb 0.00 in0.0 mm 0.00 in0.0 mm 0.00 in0.0 mm
09:10 AM 54.8°F12.7°C 46.6°F8.1°C 74% 13.5 mph SW21.7 kmh SW 21.1 mph34.0 kmh 29.50 in999.0 mb 0.00 in0.0 mm 0.00 in0.0 mm 0.00 in0.0 mm
09:05 AM 54.8°F12.7°C 46.6°F8.1°C 74% 13.4 mph SW21.6 kmh SW 21.1 mph34.0 kmh 29.50 in999.0 mb 0.00 in0.0 mm 0.00 in0.0 mm 0.00 in0.0 mm
09:00 AM 54.8°F12.7°C 46.6°F8.1°C 74% 11.2 mph SW18.0 kmh SW 20.5 mph33.0 kmh 29.50 in999.0 mb 0.00 in0.0 mm 0.00 in0.0 mm 0.00 in0.0 mm
08:55 AM 54.8°F12.7°C 46.6°F8.1°C 74% 11.4 mph SW18.3 kmh SW 20.8 mph33.5 kmh 29.50 in999.0 mb 0.00 in0.0 mm 0.00 in0.0 mm 0.00 in0.0 mm
08:50 AM 54.8°F12.7°C 46.6°F8.1°C 74% 12.0 mph SW19.3 kmh SW 20.8 mph33.5 kmh 29.50 in999.0 mb 0.00 in0.0 mm 0.00 in0.0 mm 0.00 in0.0 mm
08:45 AM 54.8°F12.7°C 46.6°F8.1°C 74% 11.5 mph WSW18.5 kmh WSW 20.8 mph33.5 kmh 29.50 in999.0 mb 0.00 in0.0 mm 0.00 in0.0 mm 0.00 in0.0 mm
08:40 AM 54.8°F12.7°C 46.6°F8.1°C 74% 10.0 mph SW16.1 kmh SW 14.9 mph24.0 kmh 29.50 in999.0 mb 0.00 in0.0 mm 0.00 in0.0 mm 0.00 in0.0 mm
08:35 AM 54.6°F12.6°C 46.8°F8.2°C 75% 9.6 mph SW15.4 kmh SW 14.6 mph23.5 kmh 29.50 in999.0 mb 0.00 in0.0 mm 0.00 in0.0 mm 0.00 in0.0 mm
08:30 AM 54.4°F12.4°C 46.6°F8.1°C 75% 10.3 mph SW16.6 kmh SW 16.7 mph26.9 kmh 29.50 in999.0 mb 0.00 in0.0 mm 0.00 in0.0 mm 0.00 in0.0 mm
08:25 AM 54.4°F12.4°C 46.6°F8.1°C 75% 9.0 mph SW14.5 kmh SW 16.7 mph26.9 kmh 29.50 in999.0 mb 0.00 in0.0 mm 0.00 in0.0 mm 0.00 in0.0 mm
08:20 AM 54.4°F12.4°C 46.6°F8.1°C 75% 8.0 mph SW12.9 kmh SW 13.4 mph21.6 kmh 29.50 in999.0 mb 0.00 in0.0 mm 0.00 in0.0 mm 0.00 in0.0 mm
08:15 AM 54.4°F12.4°C 46.6°F8.1°C 75% 9.8 mph SW15.8 kmh SW 16.1 mph25.9 kmh 29.50 in999.0 mb 0.00 in0.0 mm 0.00 in0.0 mm 0.00 in0.0 mm
08:10 AM 54.2°F12.3°C 46.5°F8.1°C 75% 10.9 mph SSW17.5 kmh SSW 16.1 mph25.9 kmh 29.47 in998.0 mb 0.00 in0.0 mm 0.00 in0.0 mm 0.00 in0.0 mm
08:05 AM 54.2°F12.3°C 46.8°F8.2°C 76% 9.3 mph SW15.0 kmh SW 12.8 mph20.6 kmh 29.47 in998.0 mb 0.00 in0.0 mm 0.00 in0.0 mm 0.00 in0.0 mm
08:00 AM 54.2°F12.3°C 46.8°F8.2°C 76% 7.6 mph SW12.2 kmh SW 13.7 mph22.0 kmh 29.47 in998.0 mb 0.00 in0.0 mm 0.00 in0.0 mm 0.00 in0.0 mm
07:55 AM 54.0°F12.2°C 46.7°F8.2°C 76% 9.1 mph SW14.6 kmh SW 13.7 mph22.0 kmh 29.47 in998.0 mb 0.00 in0.0 mm 0.00 in0.0 mm 0.00 in0.0 mm
07:50 AM 54.0°F12.2°C 47.0°F8.3°C 77% 10.8 mph SW17.4 kmh SW 13.4 mph21.6 kmh 29.47 in998.0 mb 0.00 in0.0 mm 0.00 in0.0 mm 0.00 in0.0 mm
07:45 AM 53.9°F12.2°C 46.8°F8.2°C 77% 9.2 mph SSW14.8 kmh SSW 13.4 mph21.6 kmh 29.47 in998.0 mb 0.00 in0.0 mm 0.00 in0.0 mm 0.00 in0.0 mm
07:40 AM 53.9°F12.2°C 46.5°F8.1°C 76% 8.1 mph SW13.0 kmh SW 11.3 mph18.2 kmh 29.50 in999.0 mb 0.00 in0.0 mm 0.00 in0.0 mm 0.00 in0.0 mm
07:35 AM 53.9°F12.2°C 46.5°F8.1°C 76% 9.5 mph SSW15.3 kmh SSW 13.4 mph21.6 kmh 29.50 in999.0 mb 0.00 in0.0 mm 0.00 in0.0 mm 0.00 in0.0 mm
07:30 AM 54.0°F12.2°C 46.7°F8.2°C 76% 9.3 mph SSW15.0 kmh SSW 13.4 mph21.6 kmh 29.50 in999.0 mb 0.00 in0.0 mm 0.00 in0.0 mm 0.00 in0.0 mm
07:25 AM 54.0°F12.2°C 46.7°F8.2°C 76% 8.6 mph SW13.8 kmh SW 13.4 mph21.6 kmh 29.47 in998.0 mb 0.00 in0.0 mm 0.00 in0.0 mm 0.00 in0.0 mm
07:20 AM 54.0°F12.2°C 46.7°F8.2°C 76% 10.5 mph SW16.9 kmh SW 13.4 mph21.6 kmh 29.47 in998.0 mb 0.00 in0.0 mm 0.00 in0.0 mm 0.00 in0.0 mm
07:15 AM 54.0°F12.2°C 46.7°F8.2°C 76% 13.4 mph SW21.6 kmh SW 25.9 mph41.7 kmh 29.47 in998.0 mb 0.00 in0.0 mm 0.00 in0.0 mm 0.00 in0.0 mm
07:10 AM 54.0°F12.2°C 46.7°F8.2°C 76% 13.6 mph SW21.9 kmh SW 25.9 mph41.7 kmh 29.47 in998.0 mb 0.00 in0.0 mm 0.00 in0.0 mm 0.00 in0.0 mm
07:05 AM 54.0°F12.2°C 46.7°F8.2°C 76% 12.8 mph SW20.6 kmh SW 19.6 mph31.5 kmh 29.47 in998.0 mb 0.00 in0.0 mm 0.00 in0.0 mm 0.00 in0.0 mm
07:00 AM 53.9°F12.2°C 46.8°F8.2°C 77% 13.0 mph SSW20.9 kmh SSW 19.6 mph31.5 kmh 29.47 in998.0 mb 0.00 in0.0 mm 0.00 in0.0 mm 0.00 in0.0 mm
06:55 AM 53.9°F12.2°C 46.8°F8.2°C 77% 13.1 mph S21.1 kmh S 19.6 mph31.5 kmh 29.47 in998.0 mb 0.00 in0.0 mm 0.00 in0.0 mm 0.00 in0.0 mm
06:50 AM 53.7°F12.1°C 46.7°F8.2°C 77% 11.9 mph SSW19.2 kmh SSW 17.0 mph27.4 kmh 29.47 in998.0 mb 0.00 in0.0 mm 0.00 in0.0 mm 0.00 in0.0 mm
06:45 AM 53.5°F11.9°C 46.5°F8.1°C 77% 10.4 mph SSW16.7 kmh SSW 16.7 mph26.9 kmh 29.47 in998.0 mb 0.00 in0.0 mm 0.00 in0.0 mm 0.00 in0.0 mm
06:40 AM 53.5°F11.9°C 46.8°F8.2°C 78% 11.7 mph SSW18.8 kmh SSW 20.2 mph32.5 kmh 29.47 in998.0 mb 0.00 in0.0 mm 0.00 in0.0 mm 0.00 in0.0 mm
06:35 AM 53.3°F11.8°C 46.6°F8.1°C 78% 14.5 mph SSW23.3 kmh SSW 20.2 mph32.5 kmh 29.47 in998.0 mb 0.00 in0.0 mm 0.00 in0.0 mm 0.00 in0.0 mm
06:30 AM 53.3°F11.8°C 46.6°F8.1°C 78% 11.9 mph SSW19.2 kmh SSW 20.2 mph32.5 kmh 29.47 in998.0 mb 0.00 in0.0 mm 0.00 in0.0 mm 0.00 in0.0 mm
06:25 AM 53.3°F11.8°C 46.6°F8.1°C 78% 9.1 mph SSW14.6 kmh SSW 16.4 mph26.4 kmh 29.50 in999.0 mb 0.00 in0.0 mm 0.00 in0.0 mm 0.00 in0.0 mm
06:20 AM 53.3°F11.8°C 46.6°F8.1°C 78% 9.6 mph SSW15.4 kmh SSW 14.0 mph22.5 kmh 29.50 in999.0 mb 0.00 in0.0 mm 0.00 in0.0 mm 0.00 in0.0 mm
06:15 AM 53.5°F11.9°C 46.8°F8.2°C 78% 12.3 mph SW19.8 kmh SW 20.2 mph32.5 kmh 29.50 in999.0 mb 0.00 in0.0 mm 0.00 in0.0 mm 0.00 in0.0 mm
06:10 AM 53.7°F12.1°C 47.0°F8.3°C 78% 12.8 mph SW20.6 kmh SW 20.2 mph32.5 kmh 29.50 in999.0 mb 0.00 in0.0 mm 0.00 in0.0 mm 0.00 in0.0 mm
06:05 AM 53.7°F12.1°C 47.0°F8.3°C 78% 11.6 mph SSW18.7 kmh SSW 13.4 mph21.6 kmh 29.50 in999.0 mb 0.00 in0.0 mm 0.00 in0.0 mm 0.00 in0.0 mm
06:00 AM 53.7°F12.1°C 47.0°F8.3°C 78% 13.4 mph S21.6 kmh S 16.7 mph26.9 kmh 29.50 in999.0 mb 0.00 in0.0 mm 0.00 in0.0 mm 0.00 in0.0 mm
05:55 AM 53.9°F12.2°C 47.2°F8.4°C 78% 11.9 mph SSW19.2 kmh SSW 16.7 mph26.9 kmh 29.50 in999.0 mb 0.00 in0.0 mm 0.00 in0.0 mm 0.00 in0.0 mm
05:50 AM 53.9°F12.2°C 47.5°F8.6°C 79% 10.6 mph SSW17.1 kmh SSW 16.7 mph26.9 kmh 29.50 in999.0 mb 0.00 in0.0 mm 0.00 in0.0 mm 0.00 in0.0 mm
05:45 AM 53.9°F12.2°C 47.5°F8.6°C 79% 10.2 mph SSW16.4 kmh SSW 12.8 mph20.6 kmh 29.50 in999.0 mb 0.00 in0.0 mm 0.00 in0.0 mm 0.00 in0.0 mm
05:40 AM 53.9°F12.2°C 47.5°F8.6°C 79% 10.5 mph SSW16.9 kmh SSW 12.8 mph20.6 kmh 29.50 in999.0 mb 0.00 in0.0 mm 0.00 in0.0 mm 0.00 in0.0 mm
05:35 AM 53.9°F12.2°C 47.5°F8.6°C 79% 8.9 mph SW14.3 kmh SW 13.1 mph21.1 kmh 29.50 in999.0 mb 0.00 in0.0 mm 0.00 in0.0 mm 0.00 in0.0 mm
05:30 AM 53.7°F12.1°C 47.3°F8.5°C 79% 9.2 mph SW14.8 kmh SW 14.6 mph23.5 kmh 29.50 in999.0 mb 0.00 in0.0 mm 0.00 in0.0 mm 0.00 in0.0 mm
05:25 AM 53.7°F12.1°C 47.7°F8.7°C 80% 10.8 mph SW17.4 kmh SW 14.6 mph23.5 kmh 29.50 in999.0 mb 0.00 in0.0 mm 0.00 in0.0 mm 0.00 in0.0 mm
05:20 AM 53.5°F11.9°C 47.5°F8.6°C 80% 10.3 mph SSW16.6 kmh SSW 14.6 mph23.5 kmh 29.50 in999.0 mb 0.00 in0.0 mm 0.00 in0.0 mm 0.00 in0.0 mm
05:15 AM 53.3°F11.8°C 47.3°F8.5°C 80% 9.8 mph SSW15.8 kmh SSW 13.1 mph21.1 kmh 29.50 in999.0 mb 0.00 in0.0 mm 0.00 in0.0 mm 0.00 in0.0 mm
05:10 AM 53.5°F11.9°C 47.5°F8.6°C 80% 9.1 mph S14.6 kmh S 13.1 mph21.1 kmh 29.50 in999.0 mb 0.00 in0.0 mm 0.00 in0.0 mm 0.00 in0.0 mm
05:05 AM 53.3°F11.8°C 47.3°F8.5°C 80% 10.1 mph SSW16.3 kmh SSW 13.7 mph22.0 kmh 29.50 in999.0 mb 0.00 in0.0 mm 0.00 in0.0 mm 0.00 in0.0 mm
05:00 AM 53.3°F11.8°C 47.3°F8.5°C 80% 11.4 mph SW18.3 kmh SW 13.7 mph22.0 kmh 29.50 in999.0 mb 0.00 in0.0 mm 0.00 in0.0 mm 0.00 in0.0 mm
04:55 AM 53.2°F11.8°C 47.1°F8.4°C 80% 10.2 mph S16.4 kmh S 13.1 mph21.1 kmh 29.50 in999.0 mb 0.00 in0.0 mm 0.00 in0.0 mm 0.00 in0.0 mm
04:50 AM 53.2°F11.8°C 47.1°F8.4°C 80% 9.3 mph S15.0 kmh S 14.6 mph23.5 kmh 29.50 in999.0 mb 0.00 in0.0 mm 0.00 in0.0 mm 0.00 in0.0 mm
04:45 AM 53.0°F11.7°C 47.0°F8.3°C 80% 8.4 mph SSW13.5 kmh SSW 14.6 mph23.5 kmh 29.50 in999.0 mb 0.00 in0.0 mm 0.00 in0.0 mm 0.00 in0.0 mm
04:40 AM 53.0°F11.7°C 47.0°F8.3°C 80% 7.7 mph SW12.4 kmh SW 8.6 mph13.8 kmh 29.50 in999.0 mb 0.00 in0.0 mm 0.00 in0.0 mm 0.00 in0.0 mm
04:35 AM 52.8°F11.6°C 46.8°F8.2°C 80% 7.4 mph S11.9 kmh S 7.4 mph11.9 kmh 29.50 in999.0 mb 0.00 in0.0 mm 0.00 in0.0 mm 0.00 in0.0 mm
04:30 AM 53.0°F11.7°C 47.0°F8.3°C 80% 9.6 mph S15.4 kmh S 12.8 mph20.6 kmh 29.50 in999.0 mb 0.00 in0.0 mm 0.00 in0.0 mm 0.00 in0.0 mm
04:25 AM 53.2°F11.8°C 47.1°F8.4°C 80% 9.8 mph S15.8 kmh S 17.0 mph27.4 kmh 29.50 in999.0 mb 0.00 in0.0 mm 0.00 in0.0 mm 0.00 in0.0 mm
04:20 AM 53.5°F11.9°C 47.8°F8.8°C 81% 9.2 mph SSW14.8 kmh SSW 17.0 mph27.4 kmh 29.50 in999.0 mb 0.00 in0.0 mm 0.00 in0.0 mm 0.00 in0.0 mm
04:15 AM 53.5°F11.9°C 47.8°F8.8°C 81% 9.9 mph SW15.9 kmh SW 17.0 mph27.4 kmh 29.50 in999.0 mb 0.00 in0.0 mm 0.00 in0.0 mm 0.00 in0.0 mm
04:10 AM 53.9°F12.2°C 48.2°F9.0°C 81% 14.2 mph SW22.9 kmh SW 17.0 mph27.4 kmh 29.50 in999.0 mb 0.00 in0.0 mm 0.00 in0.0 mm 0.00 in0.0 mm
04:05 AM 53.9°F12.2°C 48.5°F9.2°C 82% 12.5 mph SW20.1 kmh SW 17.0 mph27.4 kmh 29.50 in999.0 mb 0.00 in0.0 mm 0.00 in0.0 mm 0.00 in0.0 mm
04:00 AM 53.9°F12.2°C 48.8°F9.3°C 83% 9.0 mph WSW14.5 kmh WSW 17.0 mph27.4 kmh 29.50 in999.0 mb 0.00 in0.0 mm 0.00 in0.0 mm 0.00 in0.0 mm
03:55 AM 54.0°F12.2°C 49.3°F9.6°C 84% 8.1 mph SW13.0 kmh SW 12.2 mph19.6 kmh 29.50 in999.0 mb 0.00 in0.0 mm 0.00 in0.0 mm 0.00 in0.0 mm
03:50 AM 54.0°F12.2°C 49.3°F9.6°C 84% 8.2 mph SSW13.2 kmh SSW 12.2 mph19.6 kmh 29.50 in999.0 mb 0.00 in0.0 mm 0.00 in0.0 mm 0.00 in0.0 mm
03:45 AM 54.0°F12.2°C 49.3°F9.6°C 84% 8.1 mph S13.0 kmh S 12.2 mph19.6 kmh 29.50 in999.0 mb 0.00 in0.0 mm 0.00 in0.0 mm 0.00 in0.0 mm
03:40 AM 54.0°F12.2°C 49.6°F9.8°C 85% 7.5 mph SSW12.1 kmh SSW 12.8 mph20.6 kmh 29.50 in999.0 mb 0.00 in0.0 mm 0.00 in0.0 mm 0.00 in0.0 mm
03:35 AM 54.0°F12.2°C 49.6°F9.8°C 85% 8.2 mph SW13.2 kmh SW 12.8 mph20.6 kmh 29.50 in999.0 mb 0.00 in0.0 mm 0.00 in0.0 mm 0.00 in0.0 mm
03:30 AM 54.2°F12.3°C 49.5°F9.7°C 84% 6.6 mph SW10.6 kmh SW 10.7 mph17.2 kmh 29.50 in999.0 mb 0.00 in0.0 mm 0.00 in0.0 mm 0.00 in0.0 mm
03:25 AM 54.4°F12.4°C 49.7°F9.8°C 84% 4.9 mph WSW7.9 kmh WSW 8.6 mph13.8 kmh 29.50 in999.0 mb 0.00 in0.0 mm 0.00 in0.0 mm 0.00 in0.0 mm
03:20 AM 54.6°F12.6°C 49.9°F9.9°C 84% 5.5 mph WSW8.9 kmh WSW 8.6 mph13.8 kmh 29.50 in999.0 mb 0.00 in0.0 mm 0.00 in0.0 mm 0.00 in0.0 mm
03:15 AM 54.6°F12.6°C 49.9°F9.9°C 84% 6.8 mph SSW10.9 kmh SSW 8.3 mph13.4 kmh 29.50 in999.0 mb 0.00 in0.0 mm 0.00 in0.0 mm 0.00 in0.0 mm
03:10 AM 54.8°F12.7°C 50.3°F10.2°C 85% 8.0 mph S12.9 kmh S 8.3 mph13.4 kmh 29.50 in999.0 mb 0.00 in0.0 mm 0.00 in0.0 mm 0.00 in0.0 mm
03:05 AM 55.0°F12.8°C 50.5°F10.3°C 85% 7.8 mph SSW12.6 kmh SSW 8.3 mph13.4 kmh 29.50 in999.0 mb 0.00 in0.0 mm 0.00 in0.0 mm 0.00 in0.0 mm
03:00 AM 55.1°F12.8°C 50.7°F10.4°C 85% 8.6 mph S13.8 kmh S 9.8 mph15.8 kmh 29.50 in999.0 mb 0.00 in0.0 mm 0.00 in0.0 mm 0.00 in0.0 mm
02:55 AM 55.3°F12.9°C 51.2°F10.7°C 86% 9.5 mph S15.3 kmh S 9.8 mph15.8 kmh 29.50 in999.0 mb 0.00 in0.0 mm 0.00 in0.0 mm 0.00 in0.0 mm
02:50 AM 55.3°F12.9°C 51.2°F10.7°C 86% 11.1 mph S17.9 kmh S 17.3 mph27.8 kmh 29.50 in999.0 mb 0.00 in0.0 mm 0.00 in0.0 mm 0.00 in0.0 mm
02:45 AM 55.5°F13.1°C 51.4°F10.8°C 86% 13.4 mph S21.6 kmh S 17.3 mph27.8 kmh 29.50 in999.0 mb 0.00 in0.0 mm 0.00 in0.0 mm 0.00 in0.0 mm
02:40 AM 55.5°F13.1°C 51.4°F10.8°C 86% 10.7 mph SSW17.2 kmh SSW 17.3 mph27.8 kmh 29.50 in999.0 mb 0.00 in0.0 mm 0.00 in0.0 mm 0.00 in0.0 mm
02:35 AM 55.5°F13.1°C 51.7°F10.9°C 87% 7.7 mph SSW12.4 kmh SSW 10.4 mph16.7 kmh 29.50 in999.0 mb 0.00 in0.0 mm 0.00 in0.0 mm 0.00 in0.0 mm
02:30 AM 55.7°F13.2°C 51.9°F11.1°C 87% 9.9 mph SW15.9 kmh SW 10.4 mph16.7 kmh 29.50 in999.0 mb 0.00 in0.0 mm 0.00 in0.0 mm 0.00 in0.0 mm
02:25 AM 55.7°F13.2°C 51.9°F11.1°C 87% 10.2 mph SW16.4 kmh SW 12.8 mph20.6 kmh 29.53 in1000.0 mb 0.00 in0.0 mm 0.00 in0.0 mm 0.00 in0.0 mm
02:20 AM 55.5°F13.1°C 51.7°F10.9°C 87% 10.0 mph SW16.1 kmh SW 12.8 mph20.6 kmh 29.53 in1000.0 mb 0.00 in0.0 mm 0.00 in0.0 mm 0.00 in0.0 mm
02:15 AM 55.5°F13.1°C 51.7°F10.9°C 87% 10.9 mph SW17.5 kmh SW 16.7 mph26.9 kmh 29.53 in1000.0 mb 0.00 in0.0 mm 0.00 in0.0 mm 0.00 in0.0 mm
02:10 AM 55.5°F13.1°C 51.7°F10.9°C 87% 11.2 mph SSW18.0 kmh SSW 16.7 mph26.9 kmh 29.53 in1000.0 mb 0.00 in0.0 mm 0.00 in0.0 mm 0.00 in0.0 mm
02:05 AM 55.5°F13.1°C 52.0°F11.1°C 88% 10.6 mph S17.1 kmh S 14.3 mph23.0 kmh 29.53 in1000.0 mb 0.00 in0.0 mm 0.00 in0.0 mm 0.00 in0.0 mm
02:00 AM 55.5°F13.1°C 52.0°F11.1°C 88% 12.5 mph S20.1 kmh S 17.6 mph28.3 kmh 29.53 in1000.0 mb 0.00 in0.0 mm 0.00 in0.0 mm 0.00 in0.0 mm
01:55 AM 55.3°F12.9°C 51.8°F11.0°C 88% 12.2 mph SSW19.6 kmh SSW 17.6 mph28.3 kmh 29.53 in1000.0 mb 0.00 in0.0 mm 0.00 in0.0 mm 0.00 in0.0 mm
01:50 AM 55.3°F12.9°C 51.8°F11.0°C 88% 9.2 mph SSW14.8 kmh SSW 13.1 mph21.1 kmh 29.53 in1000.0 mb 0.00 in0.0 mm 0.00 in0.0 mm 0.00 in0.0 mm
01:45 AM 55.1°F12.8°C 51.6°F10.9°C 88% 8.4 mph S13.5 kmh S 13.1 mph21.1 kmh 29.53 in1000.0 mb 0.00 in0.0 mm 0.00 in0.0 mm 0.00 in0.0 mm
01:40 AM 55.1°F12.8°C 51.6°F10.9°C 88% 8.9 mph S14.3 kmh S 13.1 mph21.1 kmh 29.50 in999.0 mb 0.00 in0.0 mm 0.00 in0.0 mm 0.00 in0.0 mm
01:35 AM 55.1°F12.8°C 51.6°F10.9°C 88% 9.4 mph S15.1 kmh S 11.6 mph18.7 kmh 29.50 in999.0 mb 0.00 in0.0 mm 0.00 in0.0 mm 0.00 in0.0 mm
01:30 AM 55.0°F12.8°C 51.8°F11.0°C 89% 10.0 mph S16.1 kmh S 13.4 mph21.6 kmh 29.50 in999.0 mb 0.00 in0.0 mm 0.00 in0.0 mm 0.00 in0.0 mm
01:25 AM 55.0°F12.8°C 51.8°F11.0°C 89% 9.2 mph SSW14.8 kmh SSW 13.4 mph21.6 kmh 29.53 in1000.0 mb 0.00 in0.0 mm 0.00 in0.0 mm 0.00 in0.0 mm
01:20 AM 54.8°F12.7°C 51.6°F10.9°C 89% 6.6 mph SSW10.6 kmh SSW 8.0 mph12.9 kmh 29.53 in1000.0 mb 0.00 in0.0 mm 0.00 in0.0 mm 0.00 in0.0 mm
01:15 AM 54.8°F12.7°C 51.6°F10.9°C 89% 7.3 mph SSW11.7 kmh SSW 12.8 mph20.6 kmh 29.53 in1000.0 mb 0.00 in0.0 mm 0.00 in0.0 mm 0.00 in0.0 mm
01:10 AM 54.8°F12.7°C 51.6°F10.9°C 89% 7.8 mph SSW12.6 kmh SSW 12.8 mph20.6 kmh 29.53 in1000.0 mb 0.00 in0.0 mm 0.00 in0.0 mm 0.00 in0.0 mm
01:05 AM 54.6°F12.6°C 51.4°F10.8°C 89% 8.3 mph SW13.4 kmh SW 16.1 mph25.9 kmh 29.53 in1000.0 mb 0.00 in0.0 mm 0.00 in0.0 mm 0.00 in0.0 mm
01:00 AM 54.6°F12.6°C 51.4°F10.8°C 89% 8.3 mph SSW13.4 kmh SSW 16.1 mph25.9 kmh 29.53 in1000.0 mb 0.00 in0.0 mm 0.00 in0.0 mm 0.00 in0.0 mm
12:55 AM 54.4°F12.4°C 51.2°F10.7°C 89% 7.7 mph SSW12.4 kmh SSW 11.3 mph18.2 kmh 29.53 in1000.0 mb 0.00 in0.0 mm 0.00 in0.0 mm 0.00 in0.0 mm
12:50 AM 54.4°F12.4°C 51.2°F10.7°C 89% 7.9 mph SSW12.7 kmh SSW 11.3 mph18.2 kmh 29.53 in1000.0 mb 0.00 in0.0 mm 0.00 in0.0 mm 0.00 in0.0 mm
12:45 AM 54.4°F12.4°C 51.2°F10.7°C 89% 6.2 mph SSW10.0 kmh SSW 8.6 mph13.8 kmh 29.53 in1000.0 mb 0.00 in0.0 mm 0.00 in0.0 mm 0.00 in0.0 mm
12:40 AM 54.2°F12.3°C 51.1°F10.6°C 89% 6.2 mph SSW10.0 kmh SSW 9.2 mph14.8 kmh 29.53 in1000.0 mb 0.00 in0.0 mm 0.00 in0.0 mm 0.00 in0.0 mm
12:35 AM 54.2°F12.3°C 51.1°F10.6°C 89% 6.8 mph SSW10.9 kmh SSW 9.2 mph14.8 kmh 29.53 in1000.0 mb 0.00 in0.0 mm 0.00 in0.0 mm 0.00 in0.0 mm
12:30 AM 54.2°F12.3°C 51.1°F10.6°C 89% 5.9 mph SSW9.5 kmh SSW 8.0 mph12.9 kmh 29.53 in1000.0 mb 0.00 in0.0 mm 0.00 in0.0 mm 0.00 in0.0 mm
12:25 AM 54.2°F12.3°C 51.1°F10.6°C 89% 5.6 mph SSW9.0 kmh SSW 7.7 mph12.4 kmh 29.53 in1000.0 mb 0.00 in0.0 mm 0.00 in0.0 mm 0.00 in0.0 mm
12:20 AM 54.4°F12.4°C 51.2°F10.7°C 89% 5.3 mph SSW8.5 kmh SSW 7.4 mph11.9 kmh 29.53 in1000.0 mb 0.00 in0.0 mm 0.00 in0.0 mm 0.00 in0.0 mm
12:15 AM 54.4°F12.4°C 51.2°F10.7°C 89% 4.7 mph S7.6 kmh S 5.4 mph8.7 kmh 29.53 in1000.0 mb 0.00 in0.0 mm 0.00 in0.0 mm 0.00 in0.0 mm
12:10 AM 54.6°F12.6°C 51.4°F10.8°C 89% 4.9 mph SSW7.9 kmh SSW 7.1 mph11.4 kmh 29.53 in1000.0 mb 0.00 in0.0 mm 0.00 in0.0 mm 0.00 in0.0 mm
12:05 AM 54.8°F12.7°C 51.6°F10.9°C 89% 5.9 mph SSW9.5 kmh SSW 8.0 mph12.9 kmh 29.53 in1000.0 mb 0.00 in0.0 mm 0.00 in0.0 mm 0.00 in0.0 mm
12:00 AM 55.0°F12.8°C 51.8°F11.0°C 89% 7.4 mph SSW11.9 kmh SSW 10.4 mph16.7 kmh 29.53 in1000.0 mb 0.00 in0.0 mm 0.00 in0.0 mm 0.00 in0.0 mm